Cordoba, Cordoba Airport (LEBA)

NameCordoba Airport
CityCordoba
CountrySpain
ICAOLEBA
IATAODB
Altitude91 m
CoordinatesGoogle Map
Live Air TrafficLiveATC.net
METARLEBA 181700Z AUTO 00000KT 9999 NCD 17/01 Q1015
2019-02-18 17:00:00 Wind: North (0°) 0 m/s - Visibility: > 10000 m - Temperature: 17 °C - Dew point: 1 °C - Humidity: 34.1% - Pressure: 1015 hPa

Sorry, no flights used the airport in this database.